createdAt,value
2023-07-22T00:02:14.124Z,96966.27
2023-07-22T00:04:42.234Z,96967.13
2023-07-22T00:07:10.475Z,96965.70
2023-07-22T00:09:40.130Z,96966.47
2023-07-22T00:12:09.366Z,96971.34
2023-07-22T00:14:41.346Z,96963.15
2023-07-22T00:17:10.187Z,96965.47
2023-07-22T00:19:38.530Z,96972.19
2023-07-22T00:22:06.832Z,96971.28
2023-07-22T00:24:35.268Z,96968.27
2023-07-22T00:27:03.570Z,96962.92
2023-07-22T00:29:31.697Z,96960.13
2023-07-22T00:31:59.906Z,96957.98
2023-07-22T00:34:27.860Z,96962.41
2023-07-22T00:36:56.179Z,96957.71
2023-07-22T00:39:24.313Z,96956.54
2023-07-22T00:41:52.673Z,96961.20
2023-07-22T00:44:20.893Z,96969.42
2023-07-22T00:46:50.451Z,96965.17
2023-07-22T00:49:18.972Z,96959.83
2023-07-22T00:51:47.373Z,96960.94
2023-07-22T00:54:15.422Z,96970.86
2023-07-22T00:56:45.186Z,96971.77
2023-07-22T00:59:14.977Z,96973.27
2023-07-22T01:01:43.194Z,96978.80
2023-07-22T01:04:11.782Z,96989.62
2023-07-22T01:06:40.311Z,96994.89
2023-07-22T01:09:08.853Z,96991.61
2023-07-22T01:11:37.432Z,96994.34
2023-07-22T01:14:05.626Z,96990.38
2023-07-22T01:16:33.831Z,96989.59
2023-07-22T01:19:01.982Z,96994.11
2023-07-22T01:21:30.698Z,96998.17
2023-07-22T01:23:59.038Z,97001.41
2023-07-22T01:26:28.287Z,97012.11
2023-07-22T01:29:04.760Z,97012.38
2023-07-22T01:31:36.968Z,97014.36
2023-07-22T01:34:05.431Z,97015.65
2023-07-22T01:36:33.814Z,97017.30
2023-07-22T01:39:01.947Z,97022.15
2023-07-22T01:41:30.441Z,97022.73
2023-07-22T01:43:58.737Z,97026.66
2023-07-22T01:46:27.406Z,97018.50
2023-07-22T01:48:57.257Z,97016.21
2023-07-22T01:51:26.596Z,97018.02
2023-07-22T01:53:58.044Z,97025.81
2023-07-22T01:56:26.666Z,97035.77
2023-07-22T01:58:55.045Z,97038.86
2023-07-22T02:01:23.491Z,97041.71
2023-07-22T02:03:51.678Z,97041.34
2023-07-22T02:06:20.606Z,97036.57
2023-07-22T02:08:48.806Z,97040.45
2023-07-22T02:11:18.669Z,97046.66
2023-07-22T02:13:46.747Z,97050.09
2023-07-22T02:16:14.918Z,97061.36
2023-07-22T02:18:43.144Z,97070.22
2023-07-22T02:21:11.134Z,97076.94
2023-07-22T02:23:39.253Z,97076.34
2023-07-22T02:26:07.582Z,97078.20
2023-07-22T02:28:36.096Z,97080.30
2023-07-22T02:31:08.941Z,97074.02
2023-07-22T02:33:37.261Z,97069.63
2023-07-22T02:36:05.564Z,97073.05
2023-07-22T02:38:33.696Z,97084.62
2023-07-22T02:41:07.577Z,97088.39
2023-07-22T02:43:36.551Z,97094.19
2023-07-22T02:46:08.122Z,97089.59
2023-07-22T02:48:36.301Z,97087.76
2023-07-22T02:51:09.663Z,97083.52
2023-07-22T02:53:38.326Z,97082.67
2023-07-22T02:56:09.975Z,97085.08
2023-07-22T02:58:38.057Z,97093.39
2023-07-22T03:01:10.062Z,97106.98
2023-07-22T03:03:38.694Z,97109.79
2023-07-22T03:06:06.842Z,97115.02
2023-07-22T03:08:34.906Z,97114.63
2023-07-22T03:11:04.921Z,97112.31
2023-07-22T03:13:34.449Z,97104.11
2023-07-22T03:16:05.598Z,97095.64
2023-07-22T03:18:34.009Z,97102.80
2023-07-22T03:21:02.352Z,97108.41
2023-07-22T03:23:30.314Z,97109.41
2023-07-22T03:25:58.377Z,97115.06
2023-07-22T03:28:27.195Z,97113.27
2023-07-22T03:30:55.588Z,97113.48
2023-07-22T03:33:23.938Z,97122.31
2023-07-22T03:35:51.986Z,97129.78
2023-07-22T03:38:20.382Z,97131.42
2023-07-22T03:40:48.728Z,97134.98
2023-07-22T03:43:16.832Z,97138.80
2023-07-22T03:45:45.201Z,97146.59
2023-07-22T03:48:13.832Z,97146.73
2023-07-22T03:50:42.067Z,97144.30
2023-07-22T03:53:10.313Z,97136.52
2023-07-22T03:55:38.535Z,97137.23
2023-07-22T03:58:06.557Z,97142.51
2023-07-22T04:00:34.864Z,97136.89
2023-07-22T04:03:03.153Z,97139.36
2023-07-22T04:05:31.335Z,97144.06
2023-07-22T04:07:59.381Z,97147.19
2023-07-22T04:10:27.548Z,97148.38
2023-07-22T04:12:55.633Z,97147.67
2023-07-22T04:15:24.041Z,97149.45
2023-07-22T04:17:52.208Z,97148.13
2023-07-22T04:20:20.351Z,97146.63
2023-07-22T04:22:48.414Z,97149.73
2023-07-22T04:25:16.710Z,97159.23
2023-07-22T04:27:44.864Z,97160.04
2023-07-22T04:30:13.381Z,97160.89
2023-07-22T04:32:44.740Z,97156.29
2023-07-22T04:35:13.459Z,97159.88
2023-07-22T04:37:41.460Z,97160.66
2023-07-22T04:40:14.995Z,97172.00
2023-07-22T04:42:43.153Z,97184.22
2023-07-22T04:45:12.370Z,97190.36
2023-07-22T04:47:40.759Z,97190.02
2023-07-22T04:50:12.574Z,97184.16
2023-07-22T04:52:44.524Z,97176.05
2023-07-22T04:55:13.017Z,97170.21
2023-07-22T04:57:42.433Z,97165.06
2023-07-22T05:00:11.110Z,97167.39
2023-07-22T05:02:39.902Z,97167.80
2023-07-22T05:05:08.580Z,97159.58
2023-07-22T05:07:36.965Z,97148.72
2023-07-22T05:10:05.622Z,97142.98
2023-07-22T05:12:33.726Z,97142.47
2023-07-22T05:15:01.902Z,97140.98
2023-07-22T05:17:32.365Z,97146.17
2023-07-22T05:20:00.418Z,97156.31
2023-07-22T05:22:28.552Z,97161.95
2023-07-22T05:24:57.637Z,97161.61
2023-07-22T05:27:26.419Z,97152.80
2023-07-22T05:29:54.550Z,97144.29
2023-07-22T05:32:32.497Z,97147.80
2023-07-22T05:35:03.534Z,97151.48
2023-07-22T05:37:32.326Z,97151.21
2023-07-22T05:40:01.243Z,97156.22
2023-07-22T05:42:30.143Z,97164.42
2023-07-22T05:44:59.917Z,97164.33
2023-07-22T05:47:28.016Z,97166.08
2023-07-22T05:49:56.103Z,97165.70
2023-07-22T05:52:24.676Z,97160.20
2023-07-22T05:54:52.747Z,97164.31
2023-07-22T05:57:20.813Z,97166.92
2023-07-22T05:59:58.290Z,97167.77
2023-07-22T06:02:40.297Z,97176.98
2023-07-22T06:05:09.054Z,97173.34
2023-07-22T06:07:38.127Z,97171.84
2023-07-22T06:10:07.539Z,97167.70
2023-07-22T06:12:36.857Z,97175.52
2023-07-22T06:15:05.565Z,97183.68
2023-07-22T06:17:33.745Z,97192.73
2023-07-22T06:20:02.507Z,97192.19
2023-07-22T06:22:30.493Z,97187.70
2023-07-22T06:24:58.668Z,97190.95
2023-07-22T06:27:26.906Z,97187.70
2023-07-22T06:29:54.910Z,97185.31
2023-07-22T06:32:23.326Z,97182.02
2023-07-22T06:34:52.907Z,97182.65
2023-07-22T06:37:20.835Z,97183.64
2023-07-22T06:39:48.892Z,97185.89
2023-07-22T06:42:17.180Z,97194.67
2023-07-22T06:44:45.334Z,97198.73
2023-07-22T06:47:13.766Z,97202.39
2023-07-22T06:49:43.577Z,97205.38
2023-07-22T06:52:14.198Z,97206.94
2023-07-22T06:54:42.378Z,97208.66
2023-07-22T06:57:10.672Z,97211.86
2023-07-22T06:59:38.826Z,97218.38
2023-07-22T07:02:07.012Z,97225.99
2023-07-22T07:04:35.423Z,97227.88
2023-07-22T07:07:04.130Z,97232.98
2023-07-22T07:09:32.114Z,97228.95
2023-07-22T07:12:00.269Z,97231.05
2023-07-22T07:14:28.564Z,97232.62
2023-07-22T07:16:56.891Z,97234.59
2023-07-22T07:19:25.021Z,97230.77
2023-07-22T07:21:52.995Z,97227.78
2023-07-22T07:24:21.476Z,97231.76
2023-07-22T07:26:49.536Z,97233.54
2023-07-22T07:29:32.950Z,97239.64
2023-07-22T07:32:06.331Z,97235.70
2023-07-22T07:34:34.478Z,97236.63
2023-07-22T07:37:02.500Z,97234.80
2023-07-22T07:39:30.438Z,97236.34
2023-07-22T07:41:58.411Z,97241.83
2023-07-22T07:44:26.557Z,97237.80
2023-07-22T07:46:54.606Z,97240.29
2023-07-22T07:49:22.511Z,97245.39
2023-07-22T07:51:50.466Z,97248.39
2023-07-22T07:54:18.680Z,97253.27
2023-07-22T07:56:46.821Z,97260.51
2023-07-22T07:59:14.827Z,97262.22
2023-07-22T08:01:43.079Z,97264.17
2023-07-22T08:04:11.972Z,97266.43
2023-07-22T08:06:40.428Z,97270.06
2023-07-22T08:09:08.445Z,97275.83
2023-07-22T08:11:36.275Z,97277.06
2023-07-22T08:14:04.290Z,97283.04
2023-07-22T08:16:32.434Z,97279.95
2023-07-22T08:19:00.457Z,97282.27
2023-07-22T08:21:28.561Z,97288.41
2023-07-22T08:23:56.592Z,97289.54
2023-07-22T08:26:24.885Z,97288.83
2023-07-22T08:28:53.087Z,97287.42
2023-07-22T08:31:21.190Z,97286.10
2023-07-22T08:33:49.600Z,97287.24
2023-07-22T08:36:17.542Z,97285.27
2023-07-22T08:38:45.767Z,97284.85
2023-07-22T08:41:19.884Z,97289.71
2023-07-22T08:43:48.813Z,97294.89
2023-07-22T08:46:17.043Z,97297.20
2023-07-22T08:48:49.573Z,97293.50
2023-07-22T08:51:19.065Z,97294.62
2023-07-22T08:54:04.651Z,97289.83
2023-07-22T08:56:37.448Z,97291.29
2023-07-22T08:59:07.358Z,97291.70
2023-07-22T09:01:37.707Z,97292.34
2023-07-22T09:04:06.287Z,97292.59
2023-07-22T09:06:36.127Z,97290.67
2023-07-22T09:09:09.284Z,97284.64
2023-07-22T09:11:37.904Z,97282.68
2023-07-22T09:14:06.345Z,97285.17
2023-07-22T09:16:35.834Z,97290.73
2023-07-22T09:19:06.490Z,97291.65
2023-07-22T09:21:37.365Z,97290.13
2023-07-22T09:24:26.528Z,97290.67
2023-07-22T09:26:55.461Z,97287.12
2023-07-22T09:29:37.549Z,97289.20
2023-07-22T09:32:06.489Z,97292.03
2023-07-22T09:34:34.440Z,97296.90
2023-07-22T09:37:04.855Z,97297.77
2023-07-22T09:39:33.331Z,97301.67
2023-07-22T09:42:03.217Z,97302.64
2023-07-22T09:44:35.363Z,97300.09
2023-07-22T09:47:08.544Z,97298.36
2023-07-22T09:49:42.917Z,97299.39
2023-07-22T09:52:14.845Z,97302.65
2023-07-22T09:54:50.482Z,97301.02
2023-07-22T09:57:19.653Z,97298.70
2023-07-22T09:59:51.348Z,97298.17
2023-07-22T10:02:21.600Z,97306.42
2023-07-22T10:04:52.854Z,97315.23
2023-07-22T10:07:22.223Z,97318.92
2023-07-22T10:09:52.537Z,97320.77
2023-07-22T10:12:20.954Z,97322.96
2023-07-22T10:14:50.660Z,97330.31
2023-07-22T10:17:18.975Z,97332.66
2023-07-22T10:19:47.238Z,97334.04
2023-07-22T10:22:15.705Z,97331.27
2023-07-22T10:24:46.605Z,97330.67
2023-07-22T10:27:17.446Z,97333.73
2023-07-22T10:29:47.316Z,97339.29
2023-07-22T10:32:15.443Z,97336.20
2023-07-22T10:34:43.424Z,97338.45
2023-07-22T10:37:14.461Z,97342.37
2023-07-22T10:39:42.738Z,97343.13
2023-07-22T10:42:10.706Z,97340.61
2023-07-22T10:44:41.999Z,97337.45
2023-07-22T10:47:10.153Z,97341.70
2023-07-22T10:49:46.901Z,97340.99
2023-07-22T10:52:15.627Z,97338.86
2023-07-22T10:54:43.785Z,97346.15
2023-07-22T10:57:18.170Z,97348.78
2023-07-22T10:59:51.271Z,97344.36
2023-07-22T11:02:27.963Z,97344.70
2023-07-22T11:05:00.914Z,97348.05
2023-07-22T11:07:48.664Z,97346.58
2023-07-22T11:10:19.959Z,97345.64
2023-07-22T11:12:49.544Z,97342.88
2023-07-22T11:15:19.285Z,97339.34
2023-07-22T11:17:47.662Z,97339.83
2023-07-22T11:20:15.788Z,97339.89
2023-07-22T11:22:44.784Z,97340.92
2023-07-22T11:25:19.544Z,97337.57
2023-07-22T11:27:47.590Z,97344.69
2023-07-22T11:30:15.746Z,97340.51
2023-07-22T11:32:45.244Z,97337.74
2023-07-22T11:35:13.216Z,97342.05
2023-07-22T11:37:41.269Z,97343.50
2023-07-22T11:40:13.593Z,97342.59
2023-07-22T11:42:41.828Z,97344.71
2023-07-22T11:45:10.164Z,97352.64
2023-07-22T11:47:38.725Z,97348.12
2023-07-22T11:50:07.356Z,97345.53
2023-07-22T11:52:35.423Z,97344.02
2023-07-22T11:55:06.592Z,97342.37
2023-07-22T11:57:34.765Z,97339.57
2023-07-22T12:00:02.756Z,97340.58
2023-07-22T12:02:37.952Z,97340.70
2023-07-22T12:05:07.078Z,97343.17
2023-07-22T12:07:36.856Z,97346.11
2023-07-22T12:10:07.408Z,97344.20
2023-07-22T12:12:37.462Z,97339.44
2023-07-22T12:15:17.839Z,97344.02
2023-07-22T12:17:47.364Z,97342.02
2023-07-22T12:20:17.483Z,97340.27
2023-07-22T12:22:46.100Z,97344.34
2023-07-22T12:25:14.206Z,97347.55
2023-07-22T12:27:42.238Z,97341.96
2023-07-22T12:30:10.854Z,97346.61
2023-07-22T12:32:39.422Z,97349.36
2023-07-22T12:35:08.304Z,97353.34
2023-07-22T12:37:37.300Z,97350.91
2023-07-22T12:40:09.638Z,97342.45
2023-07-22T12:42:38.187Z,97347.58
2023-07-22T12:45:07.254Z,97348.36
2023-07-22T12:47:35.244Z,97345.71
2023-07-22T12:50:03.803Z,97342.12
2023-07-22T12:52:32.070Z,97340.18
2023-07-22T12:55:00.255Z,97341.24
2023-07-22T12:57:28.397Z,97342.56
2023-07-22T12:59:56.867Z,97343.02
2023-07-22T13:02:26.577Z,97345.87
2023-07-22T13:04:55.042Z,97340.32
2023-07-22T13:07:23.359Z,97335.33
2023-07-22T13:09:57.826Z,97334.77
2023-07-22T13:12:26.052Z,97337.55
2023-07-22T13:14:54.027Z,97340.31
2023-07-22T13:17:22.125Z,97339.84
2023-07-22T13:19:50.258Z,97337.52
2023-07-22T13:22:18.343Z,97337.24
2023-07-22T13:24:47.058Z,97334.56
2023-07-22T13:27:15.202Z,97335.98
2023-07-22T13:29:43.260Z,97337.62
2023-07-22T13:32:11.856Z,97339.52
2023-07-22T13:34:39.733Z,97336.78
2023-07-22T13:37:07.770Z,97340.77
2023-07-22T13:39:35.893Z,97335.54
2023-07-22T13:42:04.114Z,97332.33
2023-07-22T13:44:32.268Z,97328.38
2023-07-22T13:47:00.298Z,97325.75
2023-07-22T13:49:28.546Z,97323.23
2023-07-22T13:51:56.723Z,97323.21
2023-07-22T13:54:24.912Z,97325.08
2023-07-22T13:56:52.859Z,97322.55
2023-07-22T13:59:20.748Z,97322.33
2023-07-22T14:01:48.694Z,97321.29
2023-07-22T14:04:16.959Z,97324.27
2023-07-22T14:06:44.875Z,97323.60
2023-07-22T14:09:12.849Z,97320.60
2023-07-22T14:11:42.621Z,97321.88
2023-07-22T14:14:11.103Z,97320.02
2023-07-22T14:16:39.326Z,97312.18
2023-07-22T14:19:08.564Z,97314.41
2023-07-22T14:21:36.744Z,97314.58
2023-07-22T14:24:05.944Z,97313.55
2023-07-22T14:26:34.010Z,97312.34
2023-07-22T14:29:01.980Z,97314.16
2023-07-22T14:31:30.445Z,97317.41
2023-07-22T14:33:58.813Z,97315.10
2023-07-22T14:36:28.187Z,97318.93
2023-07-22T14:38:57.136Z,97313.33
2023-07-22T14:41:26.581Z,97311.28
2023-07-22T14:43:55.219Z,97314.30
2023-07-22T14:46:23.321Z,97314.64
2023-07-22T14:48:51.768Z,97313.40
2023-07-22T14:51:19.985Z,97314.98
2023-07-22T14:53:48.333Z,97319.09
2023-07-22T14:56:16.401Z,97313.23
2023-07-22T14:58:44.478Z,97306.52
2023-07-22T15:01:15.453Z,97313.05
2023-07-22T15:03:43.722Z,97316.55
2023-07-22T15:06:11.776Z,97311.02
2023-07-22T15:08:39.985Z,97307.17
2023-07-22T15:11:08.914Z,97304.93
2023-07-22T15:13:36.852Z,97304.28
2023-07-22T15:16:05.424Z,97305.37
2023-07-22T15:18:33.490Z,97307.17
2023-07-22T15:21:01.557Z,97309.82
2023-07-22T15:23:29.500Z,97312.65
2023-07-22T15:25:57.429Z,97312.42
2023-07-22T15:28:27.436Z,97316.31
2023-07-22T15:30:55.845Z,97313.69
2023-07-22T15:33:24.080Z,97313.85
2023-07-22T15:35:53.126Z,97313.01
2023-07-22T15:38:21.148Z,97309.69
2023-07-22T15:40:49.474Z,97312.06
2023-07-22T15:43:18.372Z,97312.70
2023-07-22T15:45:46.671Z,97316.79
2023-07-22T15:48:14.826Z,97316.90
2023-07-22T15:50:43.085Z,97313.98
2023-07-22T15:53:11.284Z,97315.54
2023-07-22T15:55:39.472Z,97317.18
2023-07-22T15:58:07.555Z,97318.73
2023-07-22T16:00:35.764Z,97315.70
2023-07-22T16:03:04.001Z,97312.52
2023-07-22T16:05:32.544Z,97310.77
2023-07-22T16:08:01.488Z,97310.83
2023-07-22T16:10:29.771Z,97315.66
2023-07-22T16:12:58.758Z,97314.39
2023-07-22T16:15:27.795Z,97312.88
2023-07-22T16:17:57.275Z,97318.45
2023-07-22T16:20:25.388Z,97325.84
2023-07-22T16:22:53.595Z,97325.04
2023-07-22T16:25:21.612Z,97328.05
2023-07-22T16:27:49.668Z,97328.02
2023-07-22T16:30:17.743Z,97331.42
2023-07-22T16:32:45.734Z,97332.70
2023-07-22T16:35:14.983Z,97334.52
2023-07-22T16:37:42.987Z,97340.50
2023-07-22T16:40:13.233Z,97341.34
2023-07-22T16:42:41.444Z,97342.02
2023-07-22T16:45:10.141Z,97341.07
2023-07-22T16:47:38.256Z,97336.00
2023-07-22T16:50:08.711Z,97333.30
2023-07-22T16:52:36.755Z,97342.11
2023-07-22T16:55:05.411Z,97342.45
2023-07-22T16:57:33.555Z,97348.27
2023-07-22T17:00:01.758Z,97352.22
2023-07-22T17:02:29.988Z,97350.77
2023-07-22T17:04:58.062Z,97360.54
2023-07-22T17:07:25.876Z,97362.23
2023-07-22T17:09:53.900Z,97362.57
2023-07-22T17:12:21.903Z,97365.84
2023-07-22T17:14:50.105Z,97372.26
2023-07-22T17:17:17.979Z,97374.55
2023-07-22T17:19:46.138Z,97376.25
2023-07-22T17:22:14.195Z,97373.47
2023-07-22T17:24:42.118Z,97373.33
2023-07-22T17:27:10.380Z,97376.20
2023-07-22T17:29:39.486Z,97374.59
2023-07-22T17:32:08.243Z,97380.27
2023-07-22T17:34:36.301Z,97389.36
2023-07-22T17:37:04.390Z,97386.82
2023-07-22T17:39:32.445Z,97377.81
2023-07-22T17:42:00.608Z,97375.77
2023-07-22T17:44:30.052Z,97375.86
2023-07-22T17:47:01.619Z,97376.48
2023-07-22T17:49:29.487Z,97377.95
2023-07-22T17:51:57.514Z,97374.36
2023-07-22T17:54:25.588Z,97372.44
2023-07-22T17:56:55.275Z,97370.07
2023-07-22T17:59:23.168Z,97372.66
2023-07-22T18:01:51.247Z,97372.84
2023-07-22T18:04:19.519Z,97371.80
2023-07-22T18:06:47.390Z,97369.85
2023-07-22T18:09:15.680Z,97374.64
2023-07-22T18:11:46.445Z,97384.12
2023-07-22T18:14:14.877Z,97391.79
2023-07-22T18:16:44.569Z,97400.29
2023-07-22T18:19:12.668Z,97405.62
2023-07-22T18:21:40.824Z,97404.23
2023-07-22T18:24:10.529Z,97407.76
2023-07-22T18:26:38.706Z,97406.59
2023-07-22T18:29:06.776Z,97412.08
2023-07-22T18:31:35.033Z,97412.36
2023-07-22T18:34:04.952Z,97412.86
2023-07-22T18:36:33.261Z,97417.22
2023-07-22T18:39:01.305Z,97412.71
2023-07-22T18:41:29.843Z,97419.33
2023-07-22T18:43:57.965Z,97424.83
2023-07-22T18:46:25.971Z,97426.21
2023-07-22T18:48:54.111Z,97432.71
2023-07-22T18:51:22.272Z,97436.23
2023-07-22T18:53:50.376Z,97441.60
2023-07-22T18:56:18.344Z,97447.20
2023-07-22T18:58:46.353Z,97445.41
2023-07-22T19:01:14.381Z,97441.75
2023-07-22T19:03:42.524Z,97442.20
2023-07-22T19:06:10.509Z,97437.92
2023-07-22T19:08:38.454Z,97439.52
2023-07-22T19:11:09.298Z,97438.83
2023-07-22T19:13:37.315Z,97433.15
2023-07-22T19:16:05.776Z,97434.10
2023-07-22T19:18:34.052Z,97434.31
2023-07-22T19:21:03.402Z,97428.63
2023-07-22T19:23:31.672Z,97422.37
2023-07-22T19:26:03.852Z,97415.39
2023-07-22T19:28:33.828Z,97416.02
2023-07-22T19:31:02.010Z,97416.73
2023-07-22T19:33:30.024Z,97419.26
2023-07-22T19:36:06.651Z,97427.63
2023-07-22T19:38:35.087Z,97443.20
2023-07-22T19:41:05.187Z,97448.20
2023-07-22T19:43:33.717Z,97438.06
2023-07-22T19:46:13.203Z,97431.89
2023-07-22T19:48:43.151Z,97434.52
2023-07-22T19:51:15.003Z,97433.30
2023-07-22T19:53:43.579Z,97431.20
2023-07-22T19:56:12.057Z,97433.02
2023-07-22T19:58:40.341Z,97431.71
2023-07-22T20:01:08.464Z,97432.40
2023-07-22T20:03:41.346Z,97439.46
2023-07-22T20:06:10.965Z,97447.45
2023-07-22T20:08:40.228Z,97454.95
2023-07-22T20:11:09.043Z,97451.92
2023-07-22T20:13:37.678Z,97450.84
2023-07-22T20:16:06.407Z,97448.43
2023-07-22T20:18:34.581Z,97452.25
2023-07-22T20:21:02.726Z,97450.89
2023-07-22T20:23:30.783Z,97457.80
2023-07-22T20:25:59.584Z,97466.04
2023-07-22T20:28:30.077Z,97469.94
2023-07-22T20:30:58.778Z,97467.91
2023-07-22T20:33:27.075Z,97474.40
2023-07-22T20:35:56.046Z,97475.48
2023-07-22T20:38:24.142Z,97473.53
2023-07-22T20:40:52.342Z,97475.85
2023-07-22T20:43:21.013Z,97477.23
2023-07-22T20:45:49.145Z,97476.06
2023-07-22T20:48:17.191Z,97475.52
2023-07-22T20:50:45.194Z,97476.30
2023-07-22T20:53:13.238Z,97471.60
2023-07-22T20:55:41.280Z,97467.49
2023-07-22T20:58:09.287Z,97470.38
2023-07-22T21:00:41.993Z,97466.77
2023-07-22T21:03:10.141Z,97465.54
2023-07-22T21:05:38.545Z,97459.68
2023-07-22T21:08:06.628Z,97452.58
2023-07-22T21:10:34.666Z,97453.08
2023-07-22T21:13:03.867Z,97453.98
2023-07-22T21:15:32.121Z,97455.52
2023-07-22T21:18:01.733Z,97461.86
2023-07-22T21:20:29.915Z,97469.36
2023-07-22T21:22:58.062Z,97477.16
2023-07-22T21:25:25.974Z,97480.73
2023-07-22T21:27:54.020Z,97478.99
2023-07-22T21:30:22.002Z,97478.73
2023-07-22T21:32:50.030Z,97477.73
2023-07-22T21:35:18.156Z,97479.81
2023-07-22T21:37:46.208Z,97480.02
2023-07-22T21:40:14.984Z,97475.23
2023-07-22T21:42:45.003Z,97474.05
2023-07-22T21:45:13.199Z,97480.21
2023-07-22T21:47:41.317Z,97489.73
2023-07-22T21:50:10.447Z,97491.95
2023-07-22T21:52:38.419Z,97491.29
2023-07-22T21:55:06.917Z,97488.21
2023-07-22T21:57:36.588Z,97475.54
2023-07-22T22:00:14.234Z,97479.34
2023-07-22T22:02:43.233Z,97475.23
2023-07-22T22:05:11.805Z,97474.27
2023-07-22T22:07:39.774Z,97473.44
2023-07-22T22:10:10.010Z,97477.16
2023-07-22T22:12:38.959Z,97474.96
2023-07-22T22:15:07.866Z,97478.92
2023-07-22T22:17:54.423Z,97478.89
2023-07-22T22:20:27.101Z,97473.02
2023-07-22T22:22:55.184Z,97470.81
2023-07-22T22:25:23.376Z,97467.39
2023-07-22T22:27:51.548Z,97472.64
2023-07-22T22:30:19.546Z,97475.73
2023-07-22T22:32:48.189Z,97483.58
2023-07-22T22:35:16.380Z,97493.25
2023-07-22T22:37:44.325Z,97498.15
2023-07-22T22:40:12.692Z,97502.25
2023-07-22T22:42:40.644Z,97505.00
2023-07-22T22:45:09.317Z,97501.88
2023-07-22T22:47:37.458Z,97500.77
2023-07-22T22:50:06.562Z,97498.02
2023-07-22T22:52:35.763Z,97495.40
2023-07-22T22:55:04.461Z,97495.97
2023-07-22T22:57:32.548Z,97489.77
2023-07-22T23:00:00.890Z,97493.40
2023-07-22T23:02:29.298Z,97493.44
2023-07-22T23:04:57.449Z,97493.33
2023-07-22T23:07:25.617Z,97490.37
2023-07-22T23:09:53.808Z,97484.09
2023-07-22T23:12:21.963Z,97487.07
2023-07-22T23:14:51.500Z,97484.38
2023-07-22T23:17:19.872Z,97480.05
2023-07-22T23:19:50.066Z,97482.44
2023-07-22T23:22:18.104Z,97480.14
2023-07-22T23:24:46.215Z,97479.64
2023-07-22T23:27:14.434Z,97483.66
2023-07-22T23:29:44.117Z,97487.03
2023-07-22T23:32:12.069Z,97487.22
2023-07-22T23:34:40.173Z,97485.74
2023-07-22T23:37:08.322Z,97492.92
2023-07-22T23:39:36.282Z,97495.77
2023-07-22T23:42:04.443Z,97496.13
2023-07-22T23:44:32.641Z,97493.16
2023-07-22T23:47:00.912Z,97487.74
2023-07-22T23:49:29.067Z,97490.98
2023-07-22T23:51:57.179Z,97494.20
2023-07-22T23:54:25.619Z,97499.92
2023-07-22T23:56:53.788Z,97498.38
2023-07-22T23:59:21.892Z,97497.58
